Time;durP1;ratioP1;P1;durP2;ratioP2;P2;SDS_P1;SDS_P2;PMS_P1;PMS_P2;Temp;Humidity;BMP_temperature;BMP_pressure;BME280_temperature;BME280_humidity;BME280_pressure;Samples;Min_cycle;Max_cycle;Signal;HPM_P1;HPM_P2
2021/08/03 00:01:55;;;;;;;7.90;4.80;;;;;;;15.66;77.39;100146.83;91465;1242;82050;-63
2021/08/03 00:04:10;;;;;;;5.60;4.40;;;;;;;15.67;77.58;100148.50;91447;1242;69286;-57
2021/08/03 00:06:21;;;;;;;5.10;4.50;;;;;;;15.69;77.49;100156.42;91477;1242;68932;-58
2021/08/03 00:08:33;;;;;;;7.20;4.90;;;;;;;15.67;77.50;100159.39;91464;1242;88255;-57
2021/08/03 00:10:45;;;;;;;5.90;4.90;;;;;;;15.64;77.26;100157.13;91469;1242;76143;-63
2021/08/03 00:12:55;;;;;;;6.00;5.10;;;;;;;15.59;77.45;100162.42;91464;1242;80609;-62
2021/08/03 00:15:03;;;;;;;6.80;4.90;;;;;;;15.57;77.40;100159.11;91435;1242;67756;-57
2021/08/03 00:17:15;;;;;;;4.80;4.10;;;;;;;15.55;77.33;100163.08;91452;1242;68310;-58
2021/08/03 00:19:27;;;;;;;7.40;5.10;;;;;;;15.50;77.61;100163.78;91457;1246;85271;-58
2021/08/03 00:21:35;;;;;;;6.20;4.60;;;;;;;15.53;77.40;100168.77;91463;1242;74213;-58
2021/08/03 00:23:47;;;;;;;6.60;4.80;;;;;;;15.53;77.31;100176.10;91469;1242;80609;-57
2021/08/03 00:25:56;;;;;;;7.30;5.20;;;;;;;15.53;77.50;100173.38;91454;1242;67230;-63
2021/08/03 00:28:06;;;;;;;5.50;4.20;;;;;;;15.48;77.57;100179.52;91487;1242;67415;-63
2021/08/03 00:30:15;;;;;;;4.90;4.40;;;;;;;15.53;77.53;100178.83;91428;1244;85682;-58
2021/08/03 00:32:26;;;;;;;5.10;4.30;;;;;;;15.53;77.58;100174.22;91417;1243;75280;-60
2021/08/03 00:34:36;;;;;;;7.60;4.90;;;;;;;15.57;77.49;100175.45;91454;1242;81365;-62
2021/08/03 00:36:44;;;;;;;5.60;4.80;;;;;;;15.56;77.47;100176.48;91393;1243;65865;-62
2021/08/03 00:38:52;;;;;;;6.40;4.80;;;;;;;15.58;77.49;100170.80;91468;1242;70019;-62
2021/08/03 00:41:05;;;;;;;6.50;4.80;;;;;;;15.59;77.48;100175.20;91474;1242;85880;-61
2021/08/03 00:43:13;;;;;;;7.30;4.70;;;;;;;15.57;77.32;100175.45;91467;1242;73732;-62
2021/08/03 00:45:21;;;;;;;5.90;4.70;;;;;;;15.55;77.40;100172.09;91491;1242;80814;-62
2021/08/03 00:47:28;;;;;;;6.50;5.20;;;;;;;15.53;77.35;100186.99;91463;1242;65718;-62
2021/08/03 00:49:36;;;;;;;6.20;5.00;;;;;;;15.43;77.11;100179.34;91498;1242;68829;-62
2021/08/03 00:51:44;;;;;;;6.00;4.90;;;;;;;15.35;77.30;100176.91;91480;1242;85341;-62
2021/08/03 00:53:52;;;;;;;5.70;4.70;;;;;;;15.27;77.17;100180.73;91448;1242;74697;-63
2021/08/03 00:56:04;;;;;;;7.20;4.90;;;;;;;15.27;77.28;100179.93;91474;1242;80578;-56
2021/08/03 00:58:12;;;;;;;5.60;4.80;;;;;;;15.21;77.33;100176.22;91439;1242;67182;-57
2021/08/03 01:00:20;;;;;;;6.50;4.60;;;;;;;15.14;77.17;100186.31;91334;1243;67658;-58
2021/08/03 01:02:31;;;;;;;5.10;4.30;;;;;;;15.02;77.30;100187.28;91332;1244;85933;-57
2021/08/03 01:04:39;;;;;;;4.90;4.40;;;;;;;14.99;77.29;100177.69;91385;1246;75551;-57
2021/08/03 01:06:57;;;;;;;5.80;4.10;;;;;;;14.98;77.42;100191.49;91497;1242;81049;-58
2021/08/03 01:09:14;;;;;;;6.30;4.80;;;;;;;14.90;77.41;100183.62;91493;1242;65130;-58
2021/08/03 01:11:30;;;;;;;5.60;4.70;;;;;;;14.76;77.35;100189.17;91492;1244;69814;-58
2021/08/03 01:13:49;;;;;;;6.80;4.30;;;;;;;14.70;77.43;100192.77;91348;1243;85903;-58
2021/08/03 01:16:06;;;;;;;8.00;4.60;;;;;;;14.69;77.57;100190.28;91486;1242;74130;-57
2021/08/03 01:18:23;;;;;;;6.10;4.20;;;;;;;14.60;77.72;100189.72;91460;1242;80604;-57
2021/08/03 01:20:49;;;;;;;5.50;4.90;;;;;;;14.55;77.93;100192.27;91436;1242;66140;-62
2021/08/03 01:23:39;;;;;;;5.40;4.80;;;;;;;14.49;77.71;100184.99;91460;1247;67644;-63
2021/08/03 01:26:06;;;;;;;6.70;4.40;;;;;;;14.41;77.73;100187.14;91429;1242;85909;-59
2021/08/03 01:28:22;;;;;;;6.20;4.50;;;;;;;14.35;77.77;100191.56;91473;1242;74797;-62
2021/08/03 01:30:32;;;;;;;5.90;4.80;;;;;;;14.31;78.27;100184.85;91474;1242;82672;-61
2021/08/03 01:32:45;;;;;;;7.00;4.50;;;;;;;14.30;78.01;100183.20;91445;1242;65995;-63
2021/08/03 01:34:54;;;;;;;6.90;5.40;;;;;;;14.24;78.37;100197.66;91483;1242;69625;-62
2021/08/03 01:37:02;;;;;;;6.50;5.00;;;;;;;14.22;78.10;100193.49;91469;1242;86554;-62
2021/08/03 01:39:11;;;;;;;7.10;4.70;;;;;;;14.19;78.54;100192.05;91428;1242;74555;-61
2021/08/03 01:41:21;;;;;;;5.50;4.60;;;;;;;14.13;78.41;100199.19;91448;1242;81497;-64
2021/08/03 01:43:29;;;;;;;6.00;5.00;;;;;;;14.13;78.43;100198.34;91434;1242;66451;-64
2021/08/03 01:45:40;;;;;;;8.00;4.90;;;;;;;14.08;78.67;100200.88;91480;1242;68128;-57
2021/08/03 01:47:47;;;;;;;6.10;4.70;;;;;;;14.04;78.63;100202.35;91455;1242;87363;-60
2021/08/03 01:49:59;;;;;;;6.30;4.70;;;;;;;13.97;78.64;100213.27;91393;1243;75036;-58
2021/08/03 01:52:12;;;;;;;6.30;4.70;;;;;;;13.97;78.72;100207.00;91457;1242;80788;-56
2021/08/03 01:54:21;;;;;;;6.50;4.80;;;;;;;13.98;78.76;100208.67;91457;1242;67343;-58
2021/08/03 01:56:30;;;;;;;5.40;4.50;;;;;;;13.99;78.68;100203.02;91466;1242;69035;-58
2021/08/03 01:58:39;;;;;;;7.90;5.10;;;;;;;14.02;78.99;100201.75;91478;1242;86579;-55
2021/08/03 02:00:49;;;;;;;6.70;4.90;;;;;;;14.03;78.90;100209.70;91467;1242;75276;-62
2021/08/03 02:02:57;;;;;;;9.10;5.20;;;;;;;13.98;78.96;100209.48;91443;1242;81288;-62
2021/08/03 02:05:10;;;;;;;5.80;4.70;;;;;;;13.97;78.96;100215.98;91467;1242;68345;-62
2021/08/03 02:07:23;;;;;;;5.00;4.50;;;;;;;13.95;78.91;100220.77;91513;1242;69279;-62
2021/08/03 02:09:31;;;;;;;6.80;4.80;;;;;;;13.93;78.88;100216.61;91456;1242;85857;-58
2021/08/03 02:11:40;;;;;;;6.70;4.90;;;;;;;13.94;79.02;100216.41;91456;1242;74411;-57
2021/08/03 02:13:48;;;;;;;6.40;4.70;;;;;;;13.93;79.17;100217.45;91460;1242;80198;-57
2021/08/03 02:15:59;;;;;;;5.90;5.10;;;;;;;13.91;78.97;100218.72;91443;1242;68165;-62
2021/08/03 02:18:06;;;;;;;6.40;5.20;;;;;;;13.82;79.31;100219.99;91455;1242;68496;-63
2021/08/03 02:20:14;;;;;;;6.10;4.70;;;;;;;13.84;79.17;100215.20;91493;1242;85697;-62
2021/08/03 02:22:23;;;;;;;6.20;5.00;;;;;;;13.86;79.06;100219.38;91404;1243;75208;-63
2021/08/03 02:24:30;;;;;;;8.00;4.90;;;;;;;13.86;79.01;100213.94;91449;1242;80881;-61
2021/08/03 02:26:38;;;;;;;6.80;5.00;;;;;;;13.84;79.15;100220.64;91450;1242;67770;-62
2021/08/03 02:28:46;;;;;;;6.40;5.10;;;;;;;13.83;79.35;100235.25;91441;1242;69553;-62
2021/08/03 02:30:59;;;;;;;6.00;4.90;;;;;;;13.82;79.23;100230.86;91445;1242;86255;-59
2021/08/03 02:33:15;;;;;;;7.30;5.30;;;;;;;13.84;79.25;100226.06;91488;1242;75080;-58
2021/08/03 02:35:29;;;;;;;6.40;4.70;;;;;;;13.84;79.18;100229.63;91465;1242;80202;-63
2021/08/03 02:37:41;;;;;;;6.90;5.30;;;;;;;13.82;79.26;100234.41;91449;1242;65289;-62
2021/08/03 02:39:53;;;;;;;5.70;5.00;;;;;;;13.84;79.01;100232.34;91489;1242;69343;-62
2021/08/03 02:42:02;;;;;;;6.60;5.40;;;;;;;13.81;79.23;100231.92;91460;1242;87037;-62
2021/08/03 02:44:12;;;;;;;6.30;5.00;;;;;;;13.77;79.07;100231.51;91330;1244;74050;-61
2021/08/03 02:46:22;;;;;;;8.50;5.30;;;;;;;13.76;79.08;100229.83;91477;1242;81275;-62
2021/08/03 02:48:31;;;;;;;7.10;5.10;;;;;;;13.69;79.02;100222.77;91433;1242;66389;-61
2021/08/03 02:50:40;;;;;;;5.80;5.00;;;;;;;13.69;79.46;100226.31;91411;1243;69046;-58
2021/08/03 02:52:53;;;;;;;6.60;4.90;;;;;;;13.66;79.25;100228.61;91430;1242;87226;-58
2021/08/03 02:55:04;;;;;;;13.00;5.40;;;;;;;13.60;79.11;100225.71;91473;1242;75131;-63
2021/08/03 02:57:15;;;;;;;5.70;5.10;;;;;;;13.62;79.27;100227.39;91435;1242;80978;-63
2021/08/03 02:59:26;;;;;;;7.80;5.00;;;;;;;13.60;79.41;100230.30;91453;1241;68502;-61
2021/08/03 03:01:36;;;;;;;5.70;5.00;;;;;;;13.58;79.37;100233.24;91442;1242;69183;-61
2021/08/03 03:03:52;;;;;;;6.80;4.70;;;;;;;13.59;79.26;100234.92;91446;1242;85238;-62
2021/08/03 03:06:03;;;;;;;6.90;4.60;;;;;;;13.57;79.42;100234.28;91451;1242;75412;-61
2021/08/03 03:08:16;;;;;;;9.50;5.20;;;;;;;13.54;79.45;100244.75;91413;1242;80438;-63
2021/08/03 03:10:28;;;;;;;5.90;5.10;;;;;;;13.54;79.34;100242.84;91452;1242;68186;-62
2021/08/03 03:12:41;;;;;;;5.30;4.80;;;;;;;13.51;79.35;100254.12;91447;1242;68800;-62
2021/08/03 03:14:51;;;;;;;6.40;5.00;;;;;;;13.48;79.25;100254.56;91479;1242;85663;-63
2021/08/03 03:17:02;;;;;;;6.90;4.80;;;;;;;13.45;79.47;100249.56;91453;1242;74948;-61
2021/08/03 03:19:10;;;;;;;5.50;4.80;;;;;;;13.45;79.47;100254.98;91425;1242;81877;-63
2021/08/03 03:21:22;;;;;;;7.20;5.40;;;;;;;13.42;79.59;100255.41;91446;1242;68235;-63
2021/08/03 03:23:36;;;;;;;6.60;5.10;;;;;;;13.38;79.61;100261.45;91447;1242;68003;-62
2021/08/03 03:25:45;;;;;;;7.00;4.70;;;;;;;13.43;79.56;100258.96;91431;1242;86296;-61
2021/08/03 03:28:01;;;;;;;6.50;5.80;;;;;;;13.44;79.71;100264.16;91431;1242;74773;-61
2021/08/03 03:30:13;;;;;;;7.00;5.10;;;;;;;13.47;79.61;100265.62;91400;1242;81534;-63
2021/08/03 03:32:22;;;;;;;6.30;4.90;;;;;;;13.44;79.70;100261.45;91450;1242;65765;-63
2021/08/03 03:34:35;;;;;;;5.60;4.80;;;;;;;13.39;79.66;100261.25;91432;1242;69266;-59
2021/08/03 03:36:48;;;;;;;7.40;4.40;;;;;;;13.36;79.64;100261.67;91430;1242;86196;-59
2021/08/03 03:38:58;;;;;;;6.60;4.90;;;;;;;13.42;79.64;100281.70;91401;1243;76003;-58
2021/08/03 03:41:08;;;;;;;6.30;4.50;;;;;;;13.42;79.57;100268.14;91426;1242;81046;-58
2021/08/03 03:43:19;;;;;;;6.80;4.70;;;;;;;13.48;79.75;100281.70;91420;1242;66811;-59
2021/08/03 03:45:28;;;;;;;8.10;5.40;;;;;;;13.54;79.86;100274.60;91499;1242;69278;-61
2021/08/03 03:47:41;;;;;;;7.00;4.80;;;;;;;13.57;79.88;100272.27;91443;1242;85624;-62
2021/08/03 03:49:52;;;;;;;7.60;4.70;;;;;;;13.63;80.02;100273.31;91413;1242;73864;-63
2021/08/03 03:52:05;;;;;;;5.70;4.40;;;;;;;13.83;80.11;100278.70;91420;1242;80727;-62
2021/08/03 03:54:17;;;;;;;5.70;4.50;;;;;;;14.19;79.97;100278.99;91438;1242;65718;-62
2021/08/03 03:56:33;;;;;;;5.10;4.60;;;;;;;15.26;80.74;100281.67;91431;1242;68945;-61
2021/08/03 03:58:46;;;;;;;7.10;4.40;;;;;;;16.66;79.34;100284.31;91389;1246;86311;-63
2021/08/03 04:00:55;;;;;;;6.80;4.50;;;;;;;17.82;78.13;100283.68;91414;1242;74440;-63
2021/08/03 04:03:05;;;;;;;4.80;4.00;;;;;;;18.83;76.31;100276.50;91409;1243;80562;-62
2021/08/03 04:05:16;;;;;;;5.90;3.80;;;;;;;19.71;74.63;100277.69;91458;1242;67135;-66
2021/08/03 04:07:24;;;;;;;5.30;3.50;;;;;;;20.49;72.96;100275.45;91429;1242;68633;-64
2021/08/03 04:09:31;;;;;;;6.30;3.80;;;;;;;21.17;71.31;100276.73;91421;1242;85746;-59
2021/08/03 04:11:48;;;;;;;4.90;3.40;;;;;;;21.75;69.79;100284.05;91365;1243;74977;-60
2021/08/03 04:13:58;;;;;;;4.70;3.50;;;;;;;22.39;68.36;100275.61;91409;1242;80867;-60
2021/08/03 04:16:07;;;;;;;7.00;3.40;;;;;;;22.90;66.42;100280.17;91377;1243;65651;-63
2021/08/03 04:18:14;;;;;;;5.90;3.20;;;;;;;22.96;64.71;100279.09;91428;1242;68610;-63
2021/08/03 04:20:22;;;;;;;4.50;3.30;;;;;;;22.16;63.67;100287.89;91398;1242;85292;-63
2021/08/03 04:22:30;;;;;;;6.20;3.90;;;;;;;21.05;63.98;100301.59;91430;1243;74449;-63
2021/08/03 04:24:37;;;;;;;6.80;3.60;;;;;;;20.17;64.16;100292.85;91415;1242;81648;-64
2021/08/03 04:26:46;;;;;;;6.40;3.00;;;;;;;19.44;64.96;100291.26;91464;1242;65698;-64
2021/08/03 04:28:54;;;;;;;5.00;3.10;;;;;;;18.90;65.25;100297.41;91476;1242;67723;-63
2021/08/03 04:31:01;;;;;;;6.40;3.20;;;;;;;18.39;65.92;100301.03;91430;1242;87124;-65
2021/08/03 04:33:09;;;;;;;5.60;3.40;;;;;;;18.01;66.46;100296.97;91438;1242;73537;-65
2021/08/03 04:35:20;;;;;;;5.40;3.60;;;;;;;17.71;66.91;100295.45;91372;1243;81049;-62
2021/08/03 04:37:27;;;;;;;6.30;3.90;;;;;;;17.62;67.06;100294.97;91371;1243;66597;-58
2021/08/03 04:39:35;;;;;;;4.30;3.70;;;;;;;17.45;67.62;100302.17;91402;1243;68615;-63
2021/08/03 04:41:43;;;;;;;5.20;4.10;;;;;;;17.33;67.97;100295.88;91384;1243;86321;-62
2021/08/03 04:43:50;;;;;;;6.00;3.80;;;;;;;17.23;68.05;100307.36;91414;1246;74720;-61
2021/08/03 04:45:58;;;;;;;6.10;3.90;;;;;;;17.40;68.28;100296.59;91469;1242;81292;-62
2021/08/03 04:48:06;;;;;;;6.60;4.10;;;;;;;18.23;68.54;100297.16;91433;1242;66096;-66
2021/08/03 04:50:18;;;;;;;5.60;3.40;;;;;;;19.82;68.07;100302.27;91447;1242;69184;-60
2021/08/03 04:52:25;;;;;;;6.00;3.60;;;;;;;21.46;66.18;100296.47;91484;1242;85629;-59
2021/08/03 04:54:33;;;;;;;4.70;3.10;;;;;;;22.82;63.96;100298.08;91444;1242;75037;-60
2021/08/03 04:56:43;;;;;;;3.50;2.90;;;;;;;24.04;61.94;100296.95;91417;1242;80513;-60
2021/08/03 04:58:51;;;;;;;6.10;3.10;;;;;;;25.19;59.75;100296.69;91424;1242;66951;-62
2021/08/03 05:00:58;;;;;;;6.50;3.00;;;;;;;26.14;56.78;100300.58;91463;1242;68046;-65
2021/08/03 05:03:07;;;;;;;6.30;2.90;;;;;;;26.78;54.42;100296.48;91451;1242;86187;-63
2021/08/03 05:05:16;;;;;;;6.80;3.00;;;;;;;27.32;53.29;100295.91;91492;1242;74705;-57
2021/08/03 05:07:23;;;;;;;4.20;2.60;;;;;;;27.80;51.39;100294.53;91419;1242;81374;-59
2021/08/03 05:09:31;;;;;;;6.10;2.90;;;;;;;28.07;50.49;100299.36;91414;1242;66358;-61
2021/08/03 05:11:38;;;;;;;7.00;2.70;;;;;;;28.46;49.90;100299.65;91441;1242;68372;-61
2021/08/03 05:13:46;;;;;;;5.70;3.10;;;;;;;28.88;47.95;100306.00;91435;1242;87047;-64
2021/08/03 05:15:54;;;;;;;5.80;2.90;;;;;;;29.43;46.68;100306.66;91487;1242;74486;-62
2021/08/03 05:18:02;;;;;;;4.30;2.60;;;;;;;29.71;45.98;100310.95;91455;1242;81147;-62
2021/08/03 05:20:13;;;;;;;4.10;2.70;;;;;;;29.88;45.11;100318.63;91434;1242;67370;-62
2021/08/03 05:22:21;;;;;;;4.30;2.50;;;;;;;30.19;43.98;100308.30;91493;1242;67779;-61
2021/08/03 05:24:28;;;;;;;4.40;2.50;;;;;;;30.60;43.28;100319.13;91418;1242;85830;-57
2021/08/03 05:26:36;;;;;;;4.40;2.50;;;;;;;30.76;43.03;100317.52;91446;1242;76354;-57
2021/08/03 05:28:43;;;;;;;5.70;2.90;;;;;;;31.11;42.15;100318.41;91439;1242;81267;-58
2021/08/03 05:30:51;;;;;;;3.60;2.10;;;;;;;31.19;41.68;100323.17;91510;1242;66027;-62
2021/08/03 05:32:58;;;;;;;4.20;2.10;;;;;;;31.53;40.22;100321.20;91468;1242;69035;-62
2021/08/03 05:35:08;;;;;;;3.60;2.30;;;;;;;31.54;40.34;100322.86;91475;1242;86609;-57
2021/08/03 05:37:16;;;;;;;5.00;2.60;;;;;;;31.74;39.51;100321.35;91479;1242;75275;-58
2021/08/03 05:39:23;;;;;;;3.40;2.30;;;;;;;31.99;39.05;100323.27;91408;1242;80914;-62
2021/08/03 05:41:31;;;;;;;2.90;2.30;;;;;;;31.99;38.60;100322.44;91448;1242;65413;-62
2021/08/03 05:43:38;;;;;;;4.20;2.10;;;;;;;32.15;38.42;100323.56;91463;1242;68953;-63
2021/08/03 05:45:46;;;;;;;3.70;2.10;;;;;;;32.38;38.04;100312.94;91485;1242;85280;-61
2021/08/03 05:47:54;;;;;;;4.00;2.30;;;;;;;32.50;37.67;100322.24;91455;1242;74095;-62
2021/08/03 05:50:07;;;;;;;5.50;2.80;;;;;;;32.67;37.54;100326.95;91462;1242;82136;-65
2021/08/03 05:52:13;;;;;;;;;;;;;;;32.60;36.56;100321.91;91466;1242;65538;-61
2021/08/03 05:54:21;;;;;;;2.40;1.60;;;;;;;32.91;36.33;100326.33;91451;1242;68439;-65
2021/08/03 05:56:28;;;;;;;2.30;1.70;;;;;;;33.18;36.31;100323.81;91450;1242;86633;-66
2021/08/03 05:58:36;;;;;;;3.90;2.50;;;;;;;33.22;34.57;100327.59;91457;1242;74965;-66
2021/08/03 06:00:44;;;;;;;3.00;1.70;;;;;;;33.26;34.68;100336.13;91467;1242;81224;-66
2021/08/03 06:02:52;;;;;;;3.00;1.70;;;;;;;33.46;34.42;100338.08;91462;1242;66231;-64
2021/08/03 06:04:59;;;;;;;5.10;1.80;;;;;;;33.45;34.95;100335.64;91427;1242;69228;-61
2021/08/03 06:07:09;;;;;;;3.40;2.10;;;;;;;33.81;33.05;100336.64;91465;1242;87436;-62
2021/08/03 06:09:21;;;;;;;2.60;2.10;;;;;;;33.86;33.49;100334.77;91456;1246;73908;-61
2021/08/03 06:11:30;;;;;;;4.10;2.10;;;;;;;33.89;33.82;100340.51;91452;1242;81308;-58
2021/08/03 06:13:39;;;;;;;4.60;2.00;;;;;;;34.12;33.32;100343.72;91447;1242;65995;-59
2021/08/03 06:15:49;;;;;;;3.70;1.80;;;;;;;33.96;33.46;100339.92;91497;1242;67525;-60
2021/08/03 06:18:08;;;;;;;3.30;1.80;;;;;;;33.88;33.90;100340.84;91455;1242;86706;-61
2021/08/03 06:20:17;;;;;;;4.90;1.80;;;;;;;33.95;33.16;100343.91;91462;1242;73816;-66
2021/08/03 06:22:26;;;;;;;4.10;2.00;;;;;;;34.14;32.88;100341.41;91475;1242;81328;-66
2021/08/03 06:24:34;;;;;;;5.00;1.90;;;;;;;34.20;32.95;100342.83;91478;1242;65951;-65
2021/08/03 06:26:43;;;;;;;3.30;1.80;;;;;;;34.34;32.51;100346.92;91405;1243;68446;-64
2021/08/03 06:28:56;;;;;;;5.20;2.20;;;;;;;34.24;32.14;100341.77;91436;1242;86552;-64
2021/08/03 06:31:04;;;;;;;3.70;1.70;;;;;;;34.00;32.05;100347.31;91449;1242;75479;-60
2021/08/03 06:33:12;;;;;;;3.70;1.90;;;;;;;32.78;32.43;100347.80;91441;1242;81994;-64
2021/08/03 06:35:19;;;;;;;3.60;1.60;;;;;;;31.54;33.86;100339.61;91522;1242;65859;-66
2021/08/03 06:37:28;;;;;;;2.70;1.60;;;;;;;30.73;34.55;100340.48;91488;1242;67902;-65
2021/08/03 06:39:35;;;;;;;4.30;2.40;;;;;;;29.49;36.03;100347.16;91485;1242;85785;-64
2021/08/03 06:41:45;;;;;;;5.00;2.10;;;;;;;28.51;37.24;100349.57;91485;1242;75776;-64
2021/08/03 06:44:07;;;;;;;1.60;1.30;;;;;;;27.82;38.39;100350.61;91481;1242;80505;-60
2021/08/03 06:46:15;;;;;;;3.10;1.60;;;;;;;27.58;38.64;100349.09;91404;1243;65606;-58
2021/08/03 06:48:30;;;;;;;4.00;1.60;;;;;;;26.92;39.59;100352.81;91471;1242;68086;-61
2021/08/03 06:50:50;;;;;;;2.80;1.30;;;;;;;26.51;41.07;100354.45;91482;1242;85940;-59
2021/08/03 06:52:58;;;;;;;3.40;1.70;;;;;;;26.10;41.70;100356.79;91479;1246;75160;-60
2021/08/03 06:55:09;;;;;;;6.60;2.00;;;;;;;25.70;42.41;100352.48;91450;1242;80825;-60
2021/08/03 06:57:22;;;;;;;3.50;1.50;;;;;;;25.56;42.64;100352.32;91412;1243;66910;-59
2021/08/03 06:59:33;;;;;;;2.70;1.60;;;;;;;25.26;43.14;100348.92;91401;1245;68499;-60
2021/08/03 07:01:51;;;;;;;3.90;1.70;;;;;;;25.06;44.24;100342.41;91465;1242;87168;-61
2021/08/03 07:04:11;;;;;;;3.40;1.60;;;;;;;24.95;44.41;100351.88;91421;1243;73705;-59
2021/08/03 07:06:24;;;;;;;3.20;1.50;;;;;;;25.31;44.29;100349.71;91490;1242;82764;-62
2021/08/03 07:08:36;;;;;;;2.10;1.50;;;;;;;25.80;44.33;100344.91;91467;1242;65928;-63
2021/08/03 07:10:45;;;;;;;2.40;1.20;;;;;;;26.32;43.50;100343.28;91489;1242;67867;-59
2021/08/03 07:12:54;;;;;;;5.60;1.70;;;;;;;27.81;43.45;100343.39;91486;1242;86778;-60
2021/08/03 07:15:02;;;;;;;2.10;1.10;;;;;;;29.35;41.44;100336.09;91482;1242;74841;-62
2021/08/03 07:17:14;;;;;;;2.50;1.40;;;;;;;30.85;40.33;100347.06;91469;1242;81503;-63
2021/08/03 07:19:25;;;;;;;1.90;1.40;;;;;;;32.02;38.67;100342.20;91487;1242;66681;-61
2021/08/03 07:21:33;;;;;;;2.00;1.10;;;;;;;32.77;37.64;100343.38;91458;1242;69596;-58
2021/08/03 07:23:43;;;;;;;3.00;1.20;;;;;;;33.55;36.14;100338.83;91457;1242;85888;-60
2021/08/03 07:25:52;;;;;;;1.90;1.10;;;;;;;34.18;34.70;100351.58;91466;1242;74338;-60
2021/08/03 07:28:00;;;;;;;3.30;1.30;;;;;;;34.68;33.65;100351.30;91485;1242;81080;-59
2021/08/03 07:30:11;;;;;;;2.30;1.40;;;;;;;34.95;33.54;100344.95;91438;1242;65739;-62
2021/08/03 07:32:21;;;;;;;2.00;1.20;;;;;;;35.24;32.32;100352.30;91514;1242;70453;-61
2021/08/03 07:34:29;;;;;;;3.00;1.40;;;;;;;35.77;32.22;100344.61;91382;1243;86843;-63
2021/08/03 07:36:38;;;;;;;1.60;1.10;;;;;;;35.81;31.96;100348.35;91353;1244;75650;-62
2021/08/03 07:38:46;;;;;;;3.00;1.40;;;;;;;36.03;30.71;100344.98;91439;1243;81349;-66
2021/08/03 07:40:54;;;;;;;2.30;1.40;;;;;;;36.37;30.23;100349.89;91490;1247;68381;-60
2021/08/03 07:43:02;;;;;;;2.50;1.20;;;;;;;36.48;30.24;100353.79;91493;1242;69116;-59
2021/08/03 07:45:12;;;;;;;2.60;1.60;;;;;;;36.30;29.87;100351.70;91505;1242;86621;-65
2021/08/03 07:47:19;;;;;;;3.70;1.60;;;;;;;36.39;29.64;100355.17;91494;1242;74570;-66
2021/08/03 07:49:27;;;;;;;1.80;1.10;;;;;;;36.47;29.97;100354.17;91456;1242;80685;-57
2021/08/03 07:51:37;;;;;;;2.60;1.40;;;;;;;36.65;29.27;100359.08;91471;1242;67070;-56
2021/08/03 07:53:46;;;;;;;3.20;1.50;;;;;;;36.60;28.72;100358.54;91474;1242;69239;-60
2021/08/03 07:55:54;;;;;;;2.30;1.30;;;;;;;36.59;28.63;100351.30;91525;1242;85996;-58
2021/08/03 07:58:01;;;;;;;4.00;1.50;;;;;;;36.46;28.19;100349.70;91482;1242;75678;-58
2021/08/03 08:00:14;;;;;;;2.60;1.20;;;;;;;36.49;29.18;100344.20;91439;1242;81877;-62
2021/08/03 08:02:22;;;;;;;3.00;1.60;;;;;;;36.85;27.93;100348.70;91475;1242;66593;-60
2021/08/03 08:04:30;;;;;;;2.50;1.50;;;;;;;36.73;28.86;100345.98;91503;1242;68989;-61
2021/08/03 08:06:37;;;;;;;2.60;1.30;;;;;;;36.67;28.03;100356.71;91496;1242;85581;-60
2021/08/03 08:08:45;;;;;;;4.00;1.40;;;;;;;36.74;27.92;100352.44;91483;1242;75691;-60
2021/08/03 08:10:53;;;;;;;3.10;1.40;;;;;;;36.83;27.78;100358.70;91478;1242;81128;-59
2021/08/03 08:13:00;;;;;;;2.40;1.40;;;;;;;36.73;27.37;100350.83;91462;1242;65509;-57
2021/08/03 08:15:10;;;;;;;3.40;1.30;;;;;;;36.50;27.24;100347.84;91476;1242;69433;-60
2021/08/03 08:17:20;;;;;;;2.20;1.30;;;;;;;36.54;26.79;100352.38;91406;1245;85273;-58
2021/08/03 08:19:28;;;;;;;2.80;1.20;;;;;;;36.51;28.09;100357.91;91487;1242;75976;-61
2021/08/03 08:21:36;;;;;;;2.50;1.40;;;;;;;36.59;27.71;100357.72;91468;1247;81268;-58
2021/08/03 08:23:47;;;;;;;1.80;1.10;;;;;;;36.65;27.44;100350.64;91464;1242;66083;-60
2021/08/03 08:25:58;;;;;;;4.80;1.60;;;;;;;36.48;26.46;100350.97;91495;1242;68884;-62
2021/08/03 08:28:07;;;;;;;2.00;1.20;;;;;;;36.09;26.90;100346.35;91505;1242;86871;-62
2021/08/03 08:30:16;;;;;;;2.00;1.30;;;;;;;36.27;27.31;100343.99;91454;1242;74388;-60
2021/08/03 08:32:23;;;;;;;3.40;1.60;;;;;;;36.33;27.65;100337.73;91462;1242;81041;-73
2021/08/03 08:34:31;;;;;;;3.40;1.40;;;;;;;36.65;27.27;100339.38;91478;1242;66524;-59
2021/08/03 08:36:41;;;;;;;2.70;1.20;;;;;;;36.85;27.04;100345.89;91482;1242;69370;-60
2021/08/03 08:38:52;;;;;;;3.30;1.40;;;;;;;36.63;27.92;100340.92;91461;1246;86341;-61
2021/08/03 08:41:02;;;;;;;2.60;1.30;;;;;;;36.24;27.33;100339.91;91485;1242;75387;-62
2021/08/03 08:43:12;;;;;;;2.50;1.40;;;;;;;35.84;27.10;100342.02;91485;1242;80621;-62
2021/08/03 08:45:20;;;;;;;2.20;1.30;;;;;;;35.22;26.87;100346.20;91517;1242;67055;-61
2021/08/03 08:47:28;;;;;;;1.90;1.20;;;;;;;33.77;28.18;100348.86;91510;1242;68635;-62
2021/08/03 08:49:38;;;;;;;2.70;1.40;;;;;;;32.45;28.81;100349.58;91506;1242;86261;-62
2021/08/03 08:51:45;;;;;;;2.60;1.30;;;;;;;32.60;30.09;100341.50;91495;1242;74367;-60
2021/08/03 08:53:59;;;;;;;2.20;1.30;;;;;;;33.02;30.24;100338.77;91469;1242;81750;-63
2021/08/03 08:56:08;;;;;;;2.50;1.40;;;;;;;33.34;30.41;100335.24;91476;1242;68939;-62
2021/08/03 08:58:16;;;;;;;3.50;1.30;;;;;;;32.97;30.39;100342.56;91481;1242;68388;-64
2021/08/03 09:00:25;;;;;;;2.40;1.30;;;;;;;33.43;30.50;100337.97;91474;1242;87854;-65
2021/08/03 09:02:42;;;;;;;3.00;1.50;;;;;;;33.82;29.84;100343.86;91487;1242;76371;-61
2021/08/03 09:04:57;;;;;;;1.90;1.30;;;;;;;34.44;28.89;100350.44;91465;1242;80636;-57
2021/08/03 09:07:08;;;;;;;2.00;1.20;;;;;;;34.42;29.85;100347.97;91412;1244;65425;-59
2021/08/03 09:09:19;;;;;;;3.20;1.30;;;;;;;34.13;29.09;100346.20;91515;1242;69865;-59
2021/08/03 09:11:27;;;;;;;4.20;1.20;;;;;;;34.40;28.87;100347.52;91503;1242;87215;-57
2021/08/03 09:13:49;;;;;;;2.10;1.30;;;;;;;34.55;28.09;100348.81;91464;1242;74071;-58
2021/08/03 09:16:04;;;;;;;4.00;1.20;;;;;;;34.38;28.22;100336.65;91460;1242;81912;-62
2021/08/03 09:18:22;;;;;;;3.40;1.50;;;;;;;33.32;28.84;100342.35;91490;1242;66386;-59
2021/08/03 09:20:37;;;;;;;4.20;1.50;;;;;;;32.82;29.84;100343.17;91464;1242;69415;-60
2021/08/03 09:22:50;;;;;;;2.50;1.30;;;;;;;33.38;29.10;100338.16;91373;1245;86317;-62
2021/08/03 09:25:14;;;;;;;3.30;1.20;;;;;;;33.45;29.73;100335.64;91464;1242;73965;-59
2021/08/03 09:27:38;;;;;;;2.10;1.10;;;;;;;33.20;29.71;100343.92;91401;1247;81248;-58
2021/08/03 09:29:48;;;;;;;2.70;1.40;;;;;;;33.37;29.93;100331.76;91493;1242;66584;-60
2021/08/03 09:31:58;;;;;;;3.20;1.10;;;;;;;33.18;29.64;100329.42;91491;1242;67915;-60
2021/08/03 09:34:14;;;;;;;2.50;1.50;;;;;;;32.75;29.96;100337.27;91377;1243;87372;-61
2021/08/03 09:36:55;;;;;;;1.80;1.10;;;;;;;32.32;30.67;100336.66;91470;1242;74033;-57
2021/08/03 09:39:03;;;;;;;2.40;1.30;;;;;;;31.74;31.35;100338.11;91451;1242;81638;-59
2021/08/03 09:41:13;;;;;;;2.50;1.30;;;;;;;31.09;31.89;100334.67;91317;1244;65442;-58
2021/08/03 09:43:30;;;;;;;2.50;1.20;;;;;;;30.91;31.84;100326.23;91469;1242;68682;-58
2021/08/03 09:45:57;;;;;;;2.70;1.60;;;;;;;30.82;32.42;100336.55;91452;1242;86618;-59
2021/08/03 09:48:14;;;;;;;2.20;1.30;;;;;;;30.41;32.81;100336.11;91487;1242;75149;-59
2021/08/03 09:50:22;;;;;;;2.80;1.30;;;;;;;29.98;33.15;100338.67;91470;1242;80513;-60
2021/08/03 09:52:33;;;;;;;2.10;1.50;;;;;;;29.87;34.17;100339.25;91521;1242;66516;-59
2021/08/03 09:54:41;;;;;;;2.40;1.10;;;;;;;29.78;33.76;100342.78;91485;1242;68447;-61
2021/08/03 09:56:49;;;;;;;2.20;1.40;;;;;;;29.49;33.69;100345.20;91349;1243;86876;-59
2021/08/03 09:59:05;;;;;;;2.00;1.10;;;;;;;29.29;34.96;100342.08;91505;1242;75728;-58
2021/08/03 10:01:37;;;;;;;3.70;1.60;;;;;;;29.08;34.63;100344.49;91494;1242;81280;-68
2021/08/03 10:03:48;;;;;;;3.30;1.10;;;;;;;28.87;34.77;100332.19;91367;1242;66439;-68
2021/08/03 10:06:00;;;;;;;3.60;1.40;;;;;;;28.54;35.41;100348.95;91528;1242;69329;-63
2021/08/03 10:08:09;;;;;;;3.10;1.20;;;;;;;28.21;34.24;100341.84;91485;1242;85825;-63